sensor_id;sensor_type;location;lat;lon;timestamp;P1;durP1;ratioP1;P2;durP2;ratioP2
70946;SDS011;58605;48.700;8.760;2023-08-30T00:00:21;20.47;;;6.37;;
70946;SDS011;58605;48.700;8.760;2023-08-30T00:02:47;32.40;;;7.43;;
70946;SDS011;58605;48.700;8.760;2023-08-30T00:05:14;47.67;;;7.57;;
70946;SDS011;58605;48.700;8.760;2023-08-30T00:07:40;10.43;;;6.47;;
70946;SDS011;58605;48.700;8.760;2023-08-30T00:10:06;109.27;;;9.57;;
70946;SDS011;58605;48.700;8.760;2023-08-30T00:12:37;90.63;;;10.93;;
70946;SDS011;58605;48.700;8.760;2023-08-30T00:15:03;112.53;;;11.97;;
70946;SDS011;58605;48.700;8.760;2023-08-30T00:17:30;135.07;;;12.87;;
70946;SDS011;58605;48.700;8.760;2023-08-30T00:19:56;126.23;;;11.67;;
70946;SDS011;58605;48.700;8.760;2023-08-30T00:22:23;103.23;;;10.87;;
70946;SDS011;58605;48.700;8.760;2023-08-30T00:24:49;139.57;;;13.57;;
70946;SDS011;58605;48.700;8.760;2023-08-30T00:27:16;214.10;;;15.40;;
70946;SDS011;58605;48.700;8.760;2023-08-30T00:29:43;289.37;;;19.20;;
70946;SDS011;58605;48.700;8.760;2023-08-30T00:32:09;180.50;;;13.63;;
70946;SDS011;58605;48.700;8.760;2023-08-30T00:34:36;131.83;;;13.07;;
70946;SDS011;58605;48.700;8.760;2023-08-30T00:37:03;93.93;;;10.40;;
70946;SDS011;58605;48.700;8.760;2023-08-30T00:39:29;91.30;;;10.70;;
70946;SDS011;58605;48.700;8.760;2023-08-30T00:41:55;147.60;;;12.80;;
70946;SDS011;58605;48.700;8.760;2023-08-30T00:44:21;114.30;;;11.53;;
70946;SDS011;58605;48.700;8.760;2023-08-30T00:46:49;116.13;;;12.60;;
70946;SDS011;58605;48.700;8.760;2023-08-30T00:49:16;53.87;;;9.30;;
70946;SDS011;58605;48.700;8.760;2023-08-30T00:51:42;151.50;;;15.10;;
70946;SDS011;58605;48.700;8.760;2023-08-30T00:54:08;358.37;;;24.83;;
70946;SDS011;58605;48.700;8.760;2023-08-30T00:56:34;454.73;;;30.27;;
70946;SDS011;58605;48.700;8.760;2023-08-30T00:59:01;281.50;;;20.80;;
70946;SDS011;58605;48.700;8.760;2023-08-30T01:01:27;289.27;;;19.40;;
70946;SDS011;58605;48.700;8.760;2023-08-30T01:03:55;251.17;;;16.77;;
70946;SDS011;58605;48.700;8.760;2023-08-30T01:06:21;427.97;;;25.90;;
70946;SDS011;58605;48.700;8.760;2023-08-30T01:08:47;423.67;;;25.83;;
70946;SDS011;58605;48.700;8.760;2023-08-30T01:11:15;450.57;;;27.73;;
70946;SDS011;58605;48.700;8.760;2023-08-30T01:13:50;462.90;;;29.93;;
70946;SDS011;58605;48.700;8.760;2023-08-30T01:16:21;134.33;;;12.63;;
70946;SDS011;58605;48.700;8.760;2023-08-30T01:18:50;453.87;;;27.03;;
70946;SDS011;58605;48.700;8.760;2023-08-30T01:21:23;333.00;;;23.17;;
70946;SDS011;58605;48.700;8.760;2023-08-30T01:23:58;558.93;;;32.07;;
70946;SDS011;58605;48.700;8.760;2023-08-30T01:26:30;683.73;;;40.80;;
70946;SDS011;58605;48.700;8.760;2023-08-30T01:29:05;577.57;;;35.97;;
70946;SDS011;58605;48.700;8.760;2023-08-30T01:31:34;678.47;;;40.50;;
70946;SDS011;58605;48.700;8.760;2023-08-30T01:34:01;459.30;;;28.07;;
70946;SDS011;58605;48.700;8.760;2023-08-30T01:36:35;472.77;;;28.67;;
70946;SDS011;58605;48.700;8.760;2023-08-30T01:39:08;651.60;;;38.77;;
70946;SDS011;58605;48.700;8.760;2023-08-30T01:41:36;587.87;;;34.37;;
70946;SDS011;58605;48.700;8.760;2023-08-30T01:44:06;609.67;;;37.00;;
70946;SDS011;58605;48.700;8.760;2023-08-30T01:46:33;731.77;;;44.60;;
70946;SDS011;58605;48.700;8.760;2023-08-30T01:49:00;687.80;;;44.50;;
70946;SDS011;58605;48.700;8.760;2023-08-30T01:51:28;672.20;;;40.30;;
70946;SDS011;58605;48.700;8.760;2023-08-30T01:53:55;706.43;;;41.40;;
70946;SDS011;58605;48.700;8.760;2023-08-30T01:56:22;428.90;;;28.73;;
70946;SDS011;58605;48.700;8.760;2023-08-30T01:58:48;313.03;;;19.33;;
70946;SDS011;58605;48.700;8.760;2023-08-30T02:01:17;273.00;;;17.93;;
70946;SDS011;58605;48.700;8.760;2023-08-30T02:03:43;158.43;;;11.87;;
70946;SDS011;58605;48.700;8.760;2023-08-30T02:06:11;29.93;;;9.67;;
70946;SDS011;58605;48.700;8.760;2023-08-30T02:08:41;47.47;;;8.70;;
70946;SDS011;58605;48.700;8.760;2023-08-30T02:11:15;169.50;;;12.13;;
70946;SDS011;58605;48.700;8.760;2023-08-30T02:13:44;51.20;;;8.97;;
70946;SDS011;58605;48.700;8.760;2023-08-30T02:16:12;66.57;;;7.43;;
70946;SDS011;58605;48.700;8.760;2023-08-30T02:18:40;52.20;;;7.70;;
70946;SDS011;58605;48.700;8.760;2023-08-30T02:21:06;35.53;;;7.00;;
70946;SDS011;58605;48.700;8.760;2023-08-30T02:23:33;12.47;;;7.07;;
70946;SDS011;58605;48.700;8.760;2023-08-30T02:25:59;69.40;;;10.53;;
70946;SDS011;58605;48.700;8.760;2023-08-30T02:28:25;108.90;;;11.43;;
70946;SDS011;58605;48.700;8.760;2023-08-30T02:30:52;98.60;;;10.80;;
70946;SDS011;58605;48.700;8.760;2023-08-30T02:33:19;10.17;;;8.03;;
70946;SDS011;58605;48.700;8.760;2023-08-30T02:35:47;9.80;;;8.23;;
70946;SDS011;58605;48.700;8.760;2023-08-30T02:38:13;11.17;;;7.87;;
70946;SDS011;58605;48.700;8.760;2023-08-30T02:40:39;9.90;;;8.13;;
70946;SDS011;58605;48.700;8.760;2023-08-30T02:43:05;9.00;;;8.10;;
70946;SDS011;58605;48.700;8.760;2023-08-30T02:45:31;38.97;;;9.03;;
70946;SDS011;58605;48.700;8.760;2023-08-30T02:47:57;257.00;;;18.53;;
70946;SDS011;58605;48.700;8.760;2023-08-30T02:50:23;405.60;;;24.37;;
70946;SDS011;58605;48.700;8.760;2023-08-30T02:52:51;636.27;;;39.43;;
70946;SDS011;58605;48.700;8.760;2023-08-30T02:55:17;681.43;;;43.37;;
70946;SDS011;58605;48.700;8.760;2023-08-30T02:57:44;492.27;;;32.73;;
70946;SDS011;58605;48.700;8.760;2023-08-30T03:00:11;695.57;;;46.17;;
70946;SDS011;58605;48.700;8.760;2023-08-30T03:02:39;705.17;;;47.47;;
70946;SDS011;58605;48.700;8.760;2023-08-30T03:05:05;743.10;;;48.93;;
70946;SDS011;58605;48.700;8.760;2023-08-30T03:07:31;725.27;;;45.67;;
70946;SDS011;58605;48.700;8.760;2023-08-30T03:09:59;557.60;;;34.73;;
70946;SDS011;58605;48.700;8.760;2023-08-30T03:12:25;528.33;;;32.27;;
70946;SDS011;58605;48.700;8.760;2023-08-30T03:14:51;547.80;;;32.30;;
70946;SDS011;58605;48.700;8.760;2023-08-30T03:17:17;283.80;;;19.83;;
70946;SDS011;58605;48.700;8.760;2023-08-30T03:19:44;352.13;;;23.23;;
70946;SDS011;58605;48.700;8.760;2023-08-30T03:22:10;225.93;;;17.13;;
70946;SDS011;58605;48.700;8.760;2023-08-30T03:24:36;169.70;;;15.17;;
70946;SDS011;58605;48.700;8.760;2023-08-30T03:27:04;228.43;;;17.90;;
70946;SDS011;58605;48.700;8.760;2023-08-30T03:29:30;220.67;;;18.07;;
70946;SDS011;58605;48.700;8.760;2023-08-30T03:31:56;343.77;;;23.10;;
70946;SDS011;58605;48.700;8.760;2023-08-30T03:34:22;373.67;;;25.47;;
70946;SDS011;58605;48.700;8.760;2023-08-30T03:36:48;168.03;;;14.47;;
70946;SDS011;58605;48.700;8.760;2023-08-30T03:39:19;90.43;;;11.60;;
70946;SDS011;58605;48.700;8.760;2023-08-30T03:41:45;62.63;;;9.90;;
70946;SDS011;58605;48.700;8.760;2023-08-30T03:44:13;29.30;;;8.70;;
70946;SDS011;58605;48.700;8.760;2023-08-30T03:46:39;21.27;;;8.33;;
70946;SDS011;58605;48.700;8.760;2023-08-30T03:49:05;27.43;;;8.70;;
70946;SDS011;58605;48.700;8.760;2023-08-30T03:51:31;41.87;;;8.80;;
70946;SDS011;58605;48.700;8.760;2023-08-30T03:53:57;32.20;;;8.00;;
70946;SDS011;58605;48.700;8.760;2023-08-30T03:56:23;67.57;;;10.27;;
70946;SDS011;58605;48.700;8.760;2023-08-30T03:58:50;138.83;;;14.87;;
70946;SDS011;58605;48.700;8.760;2023-08-30T04:01:17;308.10;;;21.17;;
70946;SDS011;58605;48.700;8.760;2023-08-30T04:03:43;345.03;;;25.67;;
70946;SDS011;58605;48.700;8.760;2023-08-30T04:06:09;268.17;;;19.53;;
70946;SDS011;58605;48.700;8.760;2023-08-30T04:08:35;123.10;;;12.13;;
70946;SDS011;58605;48.700;8.760;2023-08-30T04:11:02;346.30;;;24.73;;
70946;SDS011;58605;48.700;8.760;2023-08-30T04:13:28;170.67;;;15.90;;
70946;SDS011;58605;48.700;8.760;2023-08-30T04:15:54;289.67;;;21.60;;
70946;SDS011;58605;48.700;8.760;2023-08-30T04:18:23;330.40;;;22.97;;
70946;SDS011;58605;48.700;8.760;2023-08-30T04:20:49;246.10;;;18.50;;
70946;SDS011;58605;48.700;8.760;2023-08-30T04:23:15;416.50;;;28.77;;
70946;SDS011;58605;48.700;8.760;2023-08-30T04:25:42;237.53;;;17.80;;
70946;SDS011;58605;48.700;8.760;2023-08-30T04:28:09;477.70;;;31.27;;
70946;SDS011;58605;48.700;8.760;2023-08-30T04:30:35;238.43;;;20.20;;
70946;SDS011;58605;48.700;8.760;2023-08-30T04:33:03;414.00;;;30.73;;
70946;SDS011;58605;48.700;8.760;2023-08-30T04:35:31;463.77;;;33.83;;
70946;SDS011;58605;48.700;8.760;2023-08-30T04:37:57;320.67;;;24.07;;
70946;SDS011;58605;48.700;8.760;2023-08-30T04:40:24;320.20;;;24.47;;
70946;SDS011;58605;48.700;8.760;2023-08-30T04:42:50;92.33;;;10.30;;
70946;SDS011;58605;48.700;8.760;2023-08-30T04:45:16;32.87;;;7.47;;
70946;SDS011;58605;48.700;8.760;2023-08-30T04:47:42;31.30;;;7.10;;
70946;SDS011;58605;48.700;8.760;2023-08-30T04:50:10;100.50;;;10.07;;
70946;SDS011;58605;48.700;8.760;2023-08-30T04:52:38;20.97;;;6.80;;
70946;SDS011;58605;48.700;8.760;2023-08-30T04:55:04;16.67;;;6.27;;
70946;SDS011;58605;48.700;8.760;2023-08-30T04:57:31;10.67;;;5.73;;
70946;SDS011;58605;48.700;8.760;2023-08-30T04:59:57;10.53;;;5.77;;
70946;SDS011;58605;48.700;8.760;2023-08-30T05:02:24;9.37;;;6.30;;
70946;SDS011;58605;48.700;8.760;2023-08-30T05:04:51;25.63;;;6.20;;
70946;SDS011;58605;48.700;8.760;2023-08-30T05:07:17;18.83;;;6.47;;
70946;SDS011;58605;48.700;8.760;2023-08-30T05:09:45;5.80;;;5.30;;
70946;SDS011;58605;48.700;8.760;2023-08-30T05:12:11;6.60;;;5.90;;
70946;SDS011;58605;48.700;8.760;2023-08-30T05:14:37;9.90;;;5.30;;
70946;SDS011;58605;48.700;8.760;2023-08-30T05:17:03;8.73;;;5.63;;
70946;SDS011;58605;48.700;8.760;2023-08-30T05:19:29;6.30;;;5.70;;
70946;SDS011;58605;48.700;8.760;2023-08-30T05:21:56;6.33;;;5.20;;
70946;SDS011;58605;48.700;8.760;2023-08-30T05:24:22;7.67;;;5.90;;
70946;SDS011;58605;48.700;8.760;2023-08-30T05:26:50;6.33;;;5.43;;
70946;SDS011;58605;48.700;8.760;2023-08-30T05:29:16;7.77;;;5.80;;
70946;SDS011;58605;48.700;8.760;2023-08-30T05:31:42;6.97;;;5.43;;
70946;SDS011;58605;48.700;8.760;2023-08-30T05:34:09;6.47;;;5.87;;
70946;SDS011;58605;48.700;8.760;2023-08-30T05:36:35;5.73;;;5.03;;
70946;SDS011;58605;48.700;8.760;2023-08-30T05:39:02;6.53;;;5.13;;
70946;SDS011;58605;48.700;8.760;2023-08-30T05:41:28;8.50;;;5.93;;
70946;SDS011;58605;48.700;8.760;2023-08-30T05:43:56;6.00;;;5.43;;
70946;SDS011;58605;48.700;8.760;2023-08-30T05:46:22;6.30;;;5.70;;
70946;SDS011;58605;48.700;8.760;2023-08-30T05:48:48;7.23;;;6.37;;
70946;SDS011;58605;48.700;8.760;2023-08-30T05:51:15;6.93;;;6.23;;
70946;SDS011;58605;48.700;8.760;2023-08-30T05:53:41;6.73;;;5.97;;
70946;SDS011;58605;48.700;8.760;2023-08-30T05:56:07;7.50;;;6.73;;
70946;SDS011;58605;48.700;8.760;2023-08-30T05:58:33;9.47;;;6.23;;
70946;SDS011;58605;48.700;8.760;2023-08-30T06:01:02;6.87;;;5.57;;
70946;SDS011;58605;48.700;8.760;2023-08-30T06:03:28;6.83;;;6.23;;
70946;SDS011;58605;48.700;8.760;2023-08-30T06:05:55;9.60;;;6.20;;
70946;SDS011;58605;48.700;8.760;2023-08-30T06:08:21;8.00;;;5.47;;
70946;SDS011;58605;48.700;8.760;2023-08-30T06:10:47;6.07;;;5.47;;
70946;SDS011;58605;48.700;8.760;2023-08-30T06:13:13;6.20;;;5.60;;
70946;SDS011;58605;48.700;8.760;2023-08-30T06:15:39;6.17;;;5.43;;
70946;SDS011;58605;48.700;8.760;2023-08-30T06:18:07;8.80;;;5.60;;
70946;SDS011;58605;48.700;8.760;2023-08-30T06:20:33;6.47;;;5.77;;
70946;SDS011;58605;48.700;8.760;2023-08-30T06:23:02;6.17;;;5.57;;
70946;SDS011;58605;48.700;8.760;2023-08-30T06:25:29;6.83;;;5.43;;
70946;SDS011;58605;48.700;8.760;2023-08-30T06:27:55;7.10;;;5.53;;
70946;SDS011;58605;48.700;8.760;2023-08-30T06:30:23;5.90;;;5.30;;
70946;SDS011;58605;48.700;8.760;2023-08-30T06:32:50;6.03;;;4.50;;
70946;SDS011;58605;48.700;8.760;2023-08-30T06:35:17;5.77;;;5.23;;
70946;SDS011;58605;48.700;8.760;2023-08-30T06:37:43;8.07;;;5.67;;
70946;SDS011;58605;48.700;8.760;2023-08-30T06:40:10;6.00;;;5.07;;
70946;SDS011;58605;48.700;8.760;2023-08-30T06:42:36;5.47;;;4.97;;
70946;SDS011;58605;48.700;8.760;2023-08-30T06:45:03;6.40;;;4.50;;
70946;SDS011;58605;48.700;8.760;2023-08-30T06:47:30;6.33;;;4.90;;
70946;SDS011;58605;48.700;8.760;2023-08-30T06:49:56;4.73;;;4.33;;
70946;SDS011;58605;48.700;8.760;2023-08-30T06:52:24;6.20;;;5.67;;
70946;SDS011;58605;48.700;8.760;2023-08-30T06:54:50;8.03;;;4.97;;
70946;SDS011;58605;48.700;8.760;2023-08-30T06:57:16;6.23;;;5.63;;
70946;SDS011;58605;48.700;8.760;2023-08-30T06:59:43;6.20;;;5.60;;
70946;SDS011;58605;48.700;8.760;2023-08-30T07:02:11;5.97;;;5.43;;
70946;SDS011;58605;48.700;8.760;2023-08-30T07:04:37;5.50;;;5.00;;
70946;SDS011;58605;48.700;8.760;2023-08-30T07:07:04;6.03;;;5.43;;
70946;SDS011;58605;48.700;8.760;2023-08-30T07:09:32;7.57;;;6.20;;
70946;SDS011;58605;48.700;8.760;2023-08-30T07:11:58;9.63;;;6.20;;
70946;SDS011;58605;48.700;8.760;2023-08-30T07:14:25;9.30;;;6.17;;
70946;SDS011;58605;48.700;8.760;2023-08-30T07:16:51;6.73;;;6.13;;
70946;SDS011;58605;48.700;8.760;2023-08-30T07:19:17;6.40;;;5.80;;
70946;SDS011;58605;48.700;8.760;2023-08-30T07:21:43;6.30;;;5.70;;
70946;SDS011;58605;48.700;8.760;2023-08-30T07:24:09;6.90;;;5.83;;
70946;SDS011;58605;48.700;8.760;2023-08-30T07:26:37;6.67;;;6.07;;
70946;SDS011;58605;48.700;8.760;2023-08-30T07:29:03;6.63;;;5.07;;
70946;SDS011;58605;48.700;8.760;2023-08-30T07:31:32;6.20;;;5.60;;
70946;SDS011;58605;48.700;8.760;2023-08-30T07:33:59;8.57;;;6.10;;
70946;SDS011;58605;48.700;8.760;2023-08-30T07:36:25;6.53;;;5.87;;
70946;SDS011;58605;48.700;8.760;2023-08-30T07:38:51;6.07;;;5.53;;
70946;SDS011;58605;48.700;8.760;2023-08-30T07:41:17;6.27;;;5.67;;
70946;SDS011;58605;48.700;8.760;2023-08-30T07:43:45;5.50;;;5.00;;
70946;SDS011;58605;48.700;8.760;2023-08-30T07:46:11;7.50;;;6.07;;
70946;SDS011;58605;48.700;8.760;2023-08-30T07:48:37;5.90;;;5.40;;
70946;SDS011;58605;48.700;8.760;2023-08-30T07:51:10;8.13;;;5.20;;
70946;SDS011;58605;48.700;8.760;2023-08-30T07:53:36;5.67;;;5.07;;
70946;SDS011;58605;48.700;8.760;2023-08-30T07:56:16;6.23;;;5.47;;
70946;SDS011;58605;48.700;8.760;2023-08-30T07:58:42;9.07;;;5.90;;
70946;SDS011;58605;48.700;8.760;2023-08-30T08:01:10;6.20;;;5.63;;
70946;SDS011;58605;48.700;8.760;2023-08-30T08:03:36;7.37;;;5.50;;
70946;SDS011;58605;48.700;8.760;2023-08-30T08:06:02;7.00;;;6.07;;
70946;SDS011;58605;48.700;8.760;2023-08-30T08:08:28;5.63;;;5.10;;
70946;SDS011;58605;48.700;8.760;2023-08-30T08:10:54;5.77;;;5.27;;
70946;SDS011;58605;48.700;8.760;2023-08-30T08:13:20;6.00;;;5.17;;
70946;SDS011;58605;48.700;8.760;2023-08-30T08:15:46;8.10;;;6.03;;
70946;SDS011;58605;48.700;8.760;2023-08-30T08:18:14;5.53;;;5.03;;
70946;SDS011;58605;48.700;8.760;2023-08-30T08:20:40;5.30;;;4.90;;
70946;SDS011;58605;48.700;8.760;2023-08-30T08:23:08;5.90;;;5.30;;
70946;SDS011;58605;48.700;8.760;2023-08-30T08:25:34;5.00;;;4.60;;
70946;SDS011;58605;48.700;8.760;2023-08-30T08:28:00;6.30;;;5.73;;
70946;SDS011;58605;48.700;8.760;2023-08-30T08:30:26;5.00;;;4.50;;
70946;SDS011;58605;48.700;8.760;2023-08-30T08:32:52;5.03;;;4.40;;
70946;SDS011;58605;48.700;8.760;2023-08-30T08:35:22;5.17;;;4.63;;
70946;SDS011;58605;48.700;8.760;2023-08-30T08:37:48;5.30;;;4.87;;
70946;SDS011;58605;48.700;8.760;2023-08-30T08:40:14;5.13;;;4.73;;
70946;SDS011;58605;48.700;8.760;2023-08-30T08:42:41;5.87;;;4.60;;
70946;SDS011;58605;48.700;8.760;2023-08-30T08:45:09;6.23;;;4.83;;
70946;SDS011;58605;48.700;8.760;2023-08-30T08:47:37;6.17;;;4.70;;
70946;SDS011;58605;48.700;8.760;2023-08-30T08:50:03;4.50;;;4.10;;
70946;SDS011;58605;48.700;8.760;2023-08-30T08:52:31;5.60;;;4.23;;
70946;SDS011;58605;48.700;8.760;2023-08-30T08:54:58;3.57;;;3.27;;
70946;SDS011;58605;48.700;8.760;2023-08-30T08:57:28;3.47;;;2.50;;
70946;SDS011;58605;48.700;8.760;2023-08-30T08:59:56;4.33;;;3.97;;
70946;SDS011;58605;48.700;8.760;2023-08-30T09:02:22;3.57;;;3.23;;
70946;SDS011;58605;48.700;8.760;2023-08-30T09:04:49;3.40;;;3.10;;
70946;SDS011;58605;48.700;8.760;2023-08-30T09:07:17;2.50;;;2.30;;
70946;SDS011;58605;48.700;8.760;2023-08-30T09:09:46;7.13;;;4.23;;
70946;SDS011;58605;48.700;8.760;2023-08-30T09:12:13;4.97;;;4.30;;
70946;SDS011;58605;48.700;8.760;2023-08-30T09:14:39;4.97;;;4.47;;
70946;SDS011;58605;48.700;8.760;2023-08-30T09:17:05;2.90;;;2.40;;
70946;SDS011;58605;48.700;8.760;2023-08-30T09:19:31;2.40;;;2.20;;
70946;SDS011;58605;48.700;8.760;2023-08-30T09:21:58;4.83;;;4.33;;
70946;SDS011;58605;48.700;8.760;2023-08-30T09:24:25;3.37;;;2.80;;
70946;SDS011;58605;48.700;8.760;2023-08-30T09:26:53;3.10;;;2.80;;
70946;SDS011;58605;48.700;8.760;2023-08-30T09:29:21;3.30;;;2.97;;
70946;SDS011;58605;48.700;8.760;2023-08-30T09:31:50;3.10;;;2.70;;
70946;SDS011;58605;48.700;8.760;2023-08-30T09:34:22;3.20;;;2.77;;
70946;SDS011;58605;48.700;8.760;2023-08-30T09:36:48;3.53;;;3.00;;
70946;SDS011;58605;48.700;8.760;2023-08-30T09:39:15;7.53;;;3.63;;
70946;SDS011;58605;48.700;8.760;2023-08-30T09:41:41;3.73;;;3.40;;
70946;SDS011;58605;48.700;8.760;2023-08-30T09:44:10;3.13;;;2.83;;
70946;SDS011;58605;48.700;8.760;2023-08-30T09:46:44;5.33;;;3.20;;
70946;SDS011;58605;48.700;8.760;2023-08-30T09:49:11;3.77;;;3.43;;
70946;SDS011;58605;48.700;8.760;2023-08-30T09:51:38;3.73;;;3.33;;
70946;SDS011;58605;48.700;8.760;2023-08-30T09:54:13;4.80;;;3.33;;
70946;SDS011;58605;48.700;8.760;2023-08-30T09:56:43;4.23;;;3.60;;
70946;SDS011;58605;48.700;8.760;2023-08-30T09:59:13;4.20;;;3.60;;
70946;SDS011;58605;48.700;8.760;2023-08-30T10:01:40;3.53;;;3.23;;
70946;SDS011;58605;48.700;8.760;2023-08-30T10:04:07;3.30;;;3.00;;
70946;SDS011;58605;48.700;8.760;2023-08-30T10:06:36;4.07;;;3.67;;
70946;SDS011;58605;48.700;8.760;2023-08-30T10:09:04;4.23;;;3.70;;
70946;SDS011;58605;48.700;8.760;2023-08-30T10:11:32;3.53;;;3.23;;
70946;SDS011;58605;48.700;8.760;2023-08-30T10:13:59;4.90;;;3.50;;
70946;SDS011;58605;48.700;8.760;2023-08-30T10:16:28;3.17;;;2.87;;
70946;SDS011;58605;48.700;8.760;2023-08-30T10:19:02;4.50;;;3.67;;
70946;SDS011;58605;48.700;8.760;2023-08-30T10:21:33;3.27;;;2.97;;
70946;SDS011;58605;48.700;8.760;2023-08-30T10:24:01;4.47;;;3.13;;
70946;SDS011;58605;48.700;8.760;2023-08-30T10:26:29;3.50;;;3.20;;
70946;SDS011;58605;48.700;8.760;2023-08-30T10:28:57;3.63;;;3.33;;
70946;SDS011;58605;48.700;8.760;2023-08-30T10:31:24;5.13;;;3.27;;
70946;SDS011;58605;48.700;8.760;2023-08-30T10:33:54;5.03;;;4.03;;
70946;SDS011;58605;48.700;8.760;2023-08-30T10:36:21;3.43;;;3.13;;
70946;SDS011;58605;48.700;8.760;2023-08-30T10:38:48;3.80;;;3.50;;
70946;SDS011;58605;48.700;8.760;2023-08-30T10:41:19;6.27;;;3.50;;
70946;SDS011;58605;48.700;8.760;2023-08-30T10:43:48;11.27;;;4.40;;
70946;SDS011;58605;48.700;8.760;2023-08-30T10:46:16;13.20;;;5.00;;
70946;SDS011;58605;48.700;8.760;2023-08-30T10:48:44;4.33;;;3.53;;
70946;SDS011;58605;48.700;8.760;2023-08-30T10:51:19;3.90;;;3.00;;
70946;SDS011;58605;48.700;8.760;2023-08-30T10:53:56;5.90;;;5.10;;
70946;SDS011;58605;48.700;8.760;2023-08-30T10:56:26;5.50;;;4.87;;
70946;SDS011;58605;48.700;8.760;2023-08-30T10:58:54;9.20;;;5.80;;
70946;SDS011;58605;48.700;8.760;2023-08-30T11:01:20;6.23;;;4.27;;
70946;SDS011;58605;48.700;8.760;2023-08-30T11:03:48;7.50;;;5.27;;
70946;SDS011;58605;48.700;8.760;2023-08-30T11:06:16;6.07;;;5.47;;
70946;SDS011;58605;48.700;8.760;2023-08-30T11:08:42;7.43;;;5.20;;
70946;SDS011;58605;48.700;8.760;2023-08-30T11:11:09;9.87;;;5.93;;
70946;SDS011;58605;48.700;8.760;2023-08-30T11:13:37;6.30;;;5.70;;
70946;SDS011;58605;48.700;8.760;2023-08-30T11:16:03;9.13;;;5.43;;
70946;SDS011;58605;48.700;8.760;2023-08-30T11:18:29;5.67;;;4.93;;
70946;SDS011;58605;48.700;8.760;2023-08-30T11:21:01;7.13;;;6.20;;
70946;SDS011;58605;48.700;8.760;2023-08-30T11:23:28;11.70;;;5.80;;
70946;SDS011;58605;48.700;8.760;2023-08-30T11:25:55;8.80;;;6.77;;
70946;SDS011;58605;48.700;8.760;2023-08-30T11:28:21;7.80;;;7.07;;
70946;SDS011;58605;48.700;8.760;2023-08-30T11:30:47;4.73;;;4.30;;
70946;SDS011;58605;48.700;8.760;2023-08-30T11:33:16;6.37;;;4.97;;
70946;SDS011;58605;48.700;8.760;2023-08-30T11:35:44;13.73;;;6.13;;
70946;SDS011;58605;48.700;8.760;2023-08-30T11:38:12;4.60;;;4.03;;
70946;SDS011;58605;48.700;8.760;2023-08-30T11:40:39;6.53;;;4.57;;
70946;SDS011;58605;48.700;8.760;2023-08-30T11:43:05;6.20;;;3.93;;
70946;SDS011;58605;48.700;8.760;2023-08-30T11:45:32;4.77;;;3.67;;
70946;SDS011;58605;48.700;8.760;2023-08-30T11:48:00;5.33;;;3.20;;
70946;SDS011;58605;48.700;8.760;2023-08-30T11:50:27;3.87;;;3.43;;
70946;SDS011;58605;48.700;8.760;2023-08-30T11:52:54;4.20;;;3.80;;
70946;SDS011;58605;48.700;8.760;2023-08-30T11:55:23;5.43;;;3.60;;
70946;SDS011;58605;48.700;8.760;2023-08-30T11:57:50;4.10;;;3.60;;
70946;SDS011;58605;48.700;8.760;2023-08-30T12:00:18;3.53;;;3.23;;
70946;SDS011;58605;48.700;8.760;2023-08-30T12:02:44;4.80;;;3.70;;
70946;SDS011;58605;48.700;8.760;2023-08-30T12:05:12;3.80;;;3.40;;
70946;SDS011;58605;48.700;8.760;2023-08-30T12:07:38;4.07;;;3.33;;
70946;SDS011;58605;48.700;8.760;2023-08-30T12:10:05;4.30;;;3.40;;
70946;SDS011;58605;48.700;8.760;2023-08-30T12:12:34;3.03;;;2.80;;
70946;SDS011;58605;48.700;8.760;2023-08-30T12:15:07;3.30;;;3.00;;
70946;SDS011;58605;48.700;8.760;2023-08-30T12:17:41;4.30;;;3.37;;
70946;SDS011;58605;48.700;8.760;2023-08-30T12:20:14;3.80;;;3.40;;
70946;SDS011;58605;48.700;8.760;2023-08-30T12:22:41;3.73;;;3.43;;
70946;SDS011;58605;48.700;8.760;2023-08-30T12:25:15;3.07;;;2.80;;
70946;SDS011;58605;48.700;8.760;2023-08-30T12:27:44;3.97;;;2.87;;
70946;SDS011;58605;48.700;8.760;2023-08-30T12:30:11;2.97;;;2.70;;
70946;SDS011;58605;48.700;8.760;2023-08-30T12:32:38;3.37;;;3.00;;
70946;SDS011;58605;48.700;8.760;2023-08-30T12:35:04;4.50;;;2.80;;
70946;SDS011;58605;48.700;8.760;2023-08-30T12:37:31;6.27;;;3.20;;
70946;SDS011;58605;48.700;8.760;2023-08-30T12:39:57;3.43;;;3.10;;
70946;SDS011;58605;48.700;8.760;2023-08-30T12:42:23;5.20;;;3.67;;
70946;SDS011;58605;48.700;8.760;2023-08-30T12:44:51;3.47;;;3.00;;
70946;SDS011;58605;48.700;8.760;2023-08-30T12:47:17;3.17;;;2.90;;
70946;SDS011;58605;48.700;8.760;2023-08-30T12:49:43;3.03;;;2.80;;
70946;SDS011;58605;48.700;8.760;2023-08-30T12:52:09;6.93;;;3.67;;
70946;SDS011;58605;48.700;8.760;2023-08-30T12:54:35;3.40;;;3.10;;
70946;SDS011;58605;48.700;8.760;2023-08-30T12:57:01;3.97;;;3.57;;
70946;SDS011;58605;48.700;8.760;2023-08-30T12:59:28;3.27;;;2.97;;
70946;SDS011;58605;48.700;8.760;2023-08-30T13:01:55;3.03;;;2.67;;
70946;SDS011;58605;48.700;8.760;2023-08-30T13:04:22;4.03;;;3.40;;
70946;SDS011;58605;48.700;8.760;2023-08-30T13:06:48;3.33;;;2.80;;
70946;SDS011;58605;48.700;8.760;2023-08-30T13:09:14;4.33;;;3.10;;
70946;SDS011;58605;48.700;8.760;2023-08-30T13:11:40;4.20;;;3.37;;
70946;SDS011;58605;48.700;8.760;2023-08-30T13:14:06;3.00;;;2.80;;
70946;SDS011;58605;48.700;8.760;2023-08-30T13:16:32;4.93;;;3.40;;
70946;SDS011;58605;48.700;8.760;2023-08-30T13:18:59;4.00;;;3.20;;
70946;SDS011;58605;48.700;8.760;2023-08-30T13:21:25;3.33;;;3.03;;
70946;SDS011;58605;48.700;8.760;2023-08-30T13:23:52;3.70;;;3.33;;
70946;SDS011;58605;48.700;8.760;2023-08-30T13:26:18;3.80;;;3.50;;
70946;SDS011;58605;48.700;8.760;2023-08-30T13:28:44;3.73;;;3.33;;
70946;SDS011;58605;48.700;8.760;2023-08-30T13:31:10;3.03;;;2.70;;
70946;SDS011;58605;48.700;8.760;2023-08-30T13:33:36;3.30;;;3.00;;
70946;SDS011;58605;48.700;8.760;2023-08-30T13:36:04;5.27;;;3.07;;
70946;SDS011;58605;48.700;8.760;2023-08-30T13:38:30;4.30;;;2.77;;
70946;SDS011;58605;48.700;8.760;2023-08-30T13:41:00;3.67;;;2.97;;
70946;SDS011;58605;48.700;8.760;2023-08-30T13:43:26;4.17;;;2.83;;
70946;SDS011;58605;48.700;8.760;2023-08-30T13:45:56;3.23;;;2.80;;
70946;SDS011;58605;48.700;8.760;2023-08-30T13:48:23;4.43;;;3.20;;
70946;SDS011;58605;48.700;8.760;2023-08-30T13:50:49;3.30;;;3.00;;
70946;SDS011;58605;48.700;8.760;2023-08-30T13:53:17;4.50;;;2.53;;
70946;SDS011;58605;48.700;8.760;2023-08-30T13:55:44;3.50;;;3.20;;
70946;SDS011;58605;48.700;8.760;2023-08-30T13:58:11;2.80;;;2.60;;
70946;SDS011;58605;48.700;8.760;2023-08-30T14:00:37;3.13;;;2.70;;
70946;SDS011;58605;48.700;8.760;2023-08-30T14:03:03;5.70;;;2.70;;
70946;SDS011;58605;48.700;8.760;2023-08-30T14:05:29;3.30;;;2.63;;
70946;SDS011;58605;48.700;8.760;2023-08-30T14:07:56;3.27;;;2.70;;
70946;SDS011;58605;48.700;8.760;2023-08-30T14:10:23;3.27;;;2.87;;
70946;SDS011;58605;48.700;8.760;2023-08-30T14:12:49;3.47;;;3.03;;
70946;SDS011;58605;48.700;8.760;2023-08-30T14:15:16;3.30;;;2.60;;
70946;SDS011;58605;48.700;8.760;2023-08-30T14:17:43;3.33;;;2.70;;
70946;SDS011;58605;48.700;8.760;2023-08-30T14:20:09;3.57;;;2.90;;
70946;SDS011;58605;48.700;8.760;2023-08-30T14:22:36;3.07;;;2.80;;
70946;SDS011;58605;48.700;8.760;2023-08-30T14:25:02;3.67;;;2.70;;
70946;SDS011;58605;48.700;8.760;2023-08-30T14:27:31;3.27;;;2.97;;
70946;SDS011;58605;48.700;8.760;2023-08-30T14:29:57;2.87;;;2.67;;
70946;SDS011;58605;48.700;8.760;2023-08-30T14:32:25;3.53;;;3.23;;
70946;SDS011;58605;48.700;8.760;2023-08-30T14:34:52;3.20;;;2.90;;